Terminal Aerodrome Forecast
Issued by NWS Caribou, ME

Home | Current Version | Previous Version | Text Only | Print | Product List | Glossary On
Versions: 1 2 3 4 5 6 7 8 9 10 11 12 13 14
951
FTUS41 KCAR 221730
TAFBGR
TAF
KBGR 221730Z 2218/2318 19009KT P6SM SCT050 BKN150
     FM230300 19008KT 4SM BR VCSH OVC025
     FM230700 20009KT 3SM -SHRA BR OVC007
     FM231300 23009KT P6SM BKN015
     FM231500 23010G18KT P6SM SCT025 BKN050=

USA.gov is the U.S. government's official web portal to all federal, state and local government web resources and services.